This is the latest recevied weather packets stored in our database for station/object JF1AJE-13. If no packets are shown the sender has not sent any weather packets the latest 10 day(s).
| Time | Temp. | Humidity | Pressure | Rain* | Wind** | Luminosity | Snow |
|---|---|---|---|---|---|---|---|
| 1777714322 | 23.33° C | 22% | 1004.5 hPa | 0 mm | - | - | - |
| 1777713123 | 23.89° C | 22% | 1004.1 hPa | 0 mm | - | - | - |
| 1777711921 | 24.44° C | 21% | 1003.9 hPa | 0 mm | - | - | - |
| 1777710724 | 25° C | 20% | 1003.7 hPa | 0 mm | - | - | - |
| 1777709521 | 25.56° C | 20% | 1003.6 hPa | 0 mm | - | - | - |
| 1777708322 | 25.56° C | 19% | 1003.2 hPa | 0 mm | - | - | - |
| 1777707122 | 26.11° C | 20% | 1003 hPa | 0 mm | - | - | - |
| 1777705921 | 26.11° C | 19% | 1002.6 hPa | 0 mm | - | - | - |
| 1777704721 | 26.67° C | 18% | 1002.6 hPa | 0 mm | - | - | - |
| 1777703522 | 27.78° C | 18% | 1002.3 hPa | 0 mm | - | - | - |
| 1777702320 | 27.78° C | 18% | 1001.7 hPa | 0 mm | - | - | - |
| 1777700949 | 28.33° C | 17% | 1001.6 hPa | 0 mm | - | - | - |
| 1777698549 | 27.78° C | 18% | 1000.8 hPa | 0 mm | - | - | - |
| 1777697348 | 27.78° C | 17% | 1000.7 hPa | 0 mm | - | - | - |
| 1777693747 | 27.22° C | 16% | 1000.3 hPa | 0 mm | - | - | - |
| 1777692548 | 26.67° C | 16% | 1000.1 hPa | 0 mm | - | - | - |
| 1777691347 | 27.22° C | 17% | 1000 hPa | 0 mm | - | - | - |
| 1777690146 | 26.67° C | 17% | 999.9 hPa | 0 mm | - | - | - |
| 1777688948 | 26.67° C | 16% | 999.5 hPa | 0 mm | - | - | - |
| 1777687749 | 26.67° C | 17% | 999.5 hPa | 0 mm | - | - | - |
| 1777686548 | 26.11° C | 17% | 999.6 hPa | 0 mm | - | - | - |
| 1777685346 | 25.56° C | 18% | 999.4 hPa | 0 mm | - | - | - |
| 1777684146 | 24.44° C | 26% | 999.3 hPa | 0 mm | - | - | - |
| 1777682949 | 23.33° C | 29% | 999.4 hPa | 0 mm | - | - | - |
| 1777681749 | 22.22° C | 31% | 999.1 hPa | 0 mm | - | - | - |
* Rain latest hour (hover to see other rain measurements)
** Current wind speed in m/s (hover to see current wind gust speed)